Robert L. Bradshaw International Airport Basseterre KN
ICAO: TKPK
IATA: SKB
Category: Medium
Scheduled Services:

Elevation: 170 ft
TransAlt. 5000 ft.

Airport Communications:
APP:119.6
GND:121.9
TWR:118.3

TKPK Zoom In..

If you have problems with the map follow the link
https://www.worldairports.se/pages/airport.php?
ICAO=TKPK

Runways:

(A) RW 07 length 7618 ft width 148 ft
---- / hdg 71

(B) RW 25 length 7618 ft width 148 ft
---- / hdg 251

Location; TKPK
Day. 18 / Time. 14.00 Zulu
* QNH: 1018
* Temperature: 29° c. 84.2°f.
* Wind from: 070° Speed 12 kn.
Dewpoint: 26° c.
Visibility: 10 km or more.
Clouds: Few 2200 ft.

TKPK 181400Z 07012KT 9999 FEW022 29/26 Q1018


Wind From 070°
Speed 12 kn.

 
 
jpsmedia.com for Web Design worldairports.se 2018   terms of use